Time;durP1;ratioP1;P1;durP2;ratioP2;P2;SDS_P1;SDS_P2;PMS_P1;PMS_P2;Temp;Humidity;BMP_temperature;BMP_pressure;BME280_temperature;BME280_humidity;BME280_pressure;Samples;Min_cycle;Max_cycle;Signal;HPM_P1;HPM_P2
2023/05/26 00:01:22;;;;;;;17.52;5.90;;;;;;;8.68;91.51;102899.00;5072566;28;20028;-91
2023/05/26 00:03:48;;;;;;;23.02;5.75;;;;;;;8.58;91.75;102884.63;5072855;28;20025;-85
2023/05/26 00:06:20;;;;;;;23.35;6.22;;;;;;;8.51;91.64;102883.06;5072382;28;20523;-81
2023/05/26 00:08:47;;;;;;;22.55;6.30;;;;;;;8.58;91.78;102897.50;5072649;28;20036;-85
2023/05/26 00:11:12;;;;;;;30.60;7.00;;;;;;;8.43;92.14;102872.91;5072628;28;20028;-79
2023/05/26 00:13:38;;;;;;;22.92;5.65;;;;;;;8.53;92.34;102904.47;5072602;28;20031;-83
2023/05/26 00:16:03;;;;;;;27.30;6.40;;;;;;;8.50;92.53;102905.38;5072464;28;20094;-85
2023/05/26 00:18:29;;;;;;;21.25;6.22;;;;;;;8.43;92.91;102903.81;5072684;28;20376;-83
2023/05/26 00:20:54;;;;;;;21.73;6.55;;;;;;;8.29;93.18;102892.94;5075303;28;20044;-79
2023/05/26 00:23:20;;;;;;;24.23;6.43;;;;;;;8.36;93.51;102909.97;5076517;28;20021;-83
2023/05/26 00:25:45;;;;;;;18.67;6.30;;;;;;;8.32;93.67;102910.88;5076384;28;20021;-83
2023/05/26 00:28:10;;;;;;;21.33;5.90;;;;;;;8.22;93.88;102894.75;5076285;28;20043;-84
2023/05/26 00:30:36;;;;;;;24.45;6.55;;;;;;;8.30;93.90;102905.75;5076210;28;20391;-83
2023/05/26 00:33:01;;;;;;;23.20;6.45;;;;;;;8.24;94.63;102915.31;5076056;28;20063;-82
2023/05/26 00:35:26;;;;;;;25.48;7.10;;;;;;;8.18;94.71;102911.16;5076159;28;20078;-81
2023/05/26 00:37:52;;;;;;;18.55;5.78;;;;;;;8.02;94.69;102887.44;5076244;28;20039;-80
2023/05/26 00:40:17;;;;;;;24.92;6.93;;;;;;;8.11;94.85;102903.56;5076098;28;20036;-78
2023/05/26 00:42:43;;;;;;;25.48;6.53;;;;;;;8.15;94.78;102918.91;5075984;28;20108;-80
2023/05/26 00:45:09;;;;;;;27.10;7.32;;;;;;;8.04;95.91;102901.13;5057524;28;20115;-89
2023/05/26 00:47:34;;;;;;;21.38;6.28;;;;;;;8.14;95.74;102919.78;5075582;28;20074;-78
2023/05/26 00:50:00;;;;;;;21.40;5.82;;;;;;;8.10;95.82;102914.75;5075736;28;20028;-74
2023/05/26 00:52:25;;;;;;;26.90;6.88;;;;;;;8.02;95.70;102905.44;5075978;28;20024;-88
2023/05/26 00:54:53;;;;;;;23.85;6.20;;;;;;;8.03;96.36;102919.16;5075875;28;20033;-81
2023/05/26 00:57:18;;;;;;;23.60;6.00;;;;;;;8.03;96.33;102908.88;5075694;28;20074;-88
2023/05/26 00:59:44;;;;;;;24.50;6.05;;;;;;;7.97;96.53;102916.72;5075729;28;20024;-82
2023/05/26 01:02:12;;;;;;;26.92;6.68;;;;;;;7.84;96.68;102905.78;5075298;28;20024;-84
2023/05/26 01:04:40;;;;;;;24.02;5.82;;;;;;;7.86;97.04;102916.88;5075965;28;20051;-80
2023/05/26 01:07:05;;;;;;;24.08;6.13;;;;;;;7.84;97.33;102910.94;5075387;28;20028;-86
2023/05/26 01:09:31;;;;;;;28.08;6.70;;;;;;;7.67;97.62;102898.41;5075634;28;20028;-85
2023/05/26 01:12:03;;;;;;;25.13;7.15;;;;;;;7.71;97.90;102910.31;5075723;28;20476;-89
2023/05/26 01:14:35;;;;;;;22.98;5.85;;;;;;;7.69;98.08;102914.63;5075575;28;20053;-89
2023/05/26 01:17:11;;;;;;;22.27;6.15;;;;;;;7.73;97.86;102918.00;5057255;28;20028;-87
2023/05/26 01:19:54;;;;;;;21.60;6.30;;;;;;;7.66;97.86;102919.81;5075316;28;20041;-89
2023/05/26 01:22:48;;;;;;;21.02;6.25;;;;;;;7.65;98.02;102932.69;5075194;28;20029;-90
2023/05/26 01:25:25;;;;;;;20.85;6.78;;;;;;;7.62;98.60;102933.59;4993728;28;20042;-89
2023/05/26 01:28:09;;;;;;;23.80;6.28;;;;;;;7.55;98.57;102929.44;4993613;28;20050;-90
2023/05/26 01:30:35;;;;;;;22.23;5.47;;;;;;;7.53;98.88;102926.06;4993393;28;20092;-89
2023/05/26 01:33:01;;;;;;;22.98;6.22;;;;;;;7.46;98.72;102920.16;4993708;28;20034;-83
2023/05/26 01:35:26;;;;;;;22.80;6.30;;;;;;;7.35;98.92;102922.06;4993672;28;20039;-88
2023/05/26 01:37:53;;;;;;;20.27;5.72;;;;;;;7.31;99.27;102927.28;4977588;28;20038;-86
2023/05/26 01:40:19;;;;;;;24.58;6.00;;;;;;;7.24;99.89;102912.81;4993647;28;20030;-86
2023/05/26 01:42:55;;;;;;;19.13;5.85;;;;;;;7.31;99.47;102929.84;4993489;28;20065;-83
2023/05/26 01:45:26;;;;;;;23.67;6.03;;;;;;;7.20;100.00;102932.59;4993477;28;20117;-85
2023/05/26 01:47:55;;;;;;;25.75;7.22;;;;;;;7.22;100.00;102935.97;4993557;28;20041;-85
2023/05/26 01:50:26;;;;;;;23.77;6.15;;;;;;;7.05;100.00;102930.22;4993831;28;20033;-87
2023/05/26 01:52:57;;;;;;;24.05;6.68;;;;;;;7.06;100.00;102935.34;4993134;28;20030;-88
2023/05/26 01:55:25;;;;;;;21.83;5.85;;;;;;;6.95;100.00;102918.41;4993247;28;20490;-86
2023/05/26 01:57:51;;;;;;;18.77;5.57;;;;;;;7.04;100.00;102937.09;4993160;28;20034;-88
2023/05/26 02:00:24;;;;;;;22.88;6.70;;;;;;;7.06;100.00;102939.63;4993346;28;20097;-90
2023/05/26 02:02:50;;;;;;;30.23;6.85;;;;;;;7.07;100.00;102936.19;5062612;28;20032;-90
2023/05/26 02:05:15;;;;;;;24.83;6.50;;;;;;;6.84;100.00;102908.28;5074338;28;20033;-89
2023/05/26 02:07:40;;;;;;;28.25;7.25;;;;;;;6.66;100.00;102888.84;5074296;28;20040;-77
2023/05/26 02:10:06;;;;;;;27.83;6.85;;;;;;;6.71;100.00;102894.75;5074357;28;20119;-81
2023/05/26 02:12:31;;;;;;;25.95;6.55;;;;;;;6.86;100.00;102921.94;5074140;28;20029;-75
2023/05/26 02:14:57;;;;;;;22.52;6.05;;;;;;;6.87;100.00;102933.91;5074508;28;20498;-75
2023/05/26 02:17:23;;;;;;;21.45;6.00;;;;;;;6.88;100.00;102943.31;5074157;28;20024;-76
2023/05/26 02:19:49;;;;;;;27.77;6.30;;;;;;;6.82;100.00;102946.81;5074015;28;20101;-75
2023/05/26 02:22:14;;;;;;;22.23;6.40;;;;;;;6.61;100.00;102921.44;5073928;28;20475;-75
2023/05/26 02:24:40;;;;;;;23.23;6.90;;;;;;;6.75;100.00;102947.75;5074200;28;20107;-75
2023/05/26 02:27:06;;;;;;;19.35;5.40;;;;;;;6.53;100.00;102925.81;5073698;28;20024;-78
2023/05/26 02:29:31;;;;;;;21.58;5.82;;;;;;;6.71;100.00;102958.97;5074009;28;20119;-79
2023/05/26 02:31:57;;;;;;;26.92;6.72;;;;;;;6.60;100.00;102950.53;5074081;28;20231;-75
2023/05/26 02:34:22;;;;;;;22.60;6.72;;;;;;;6.63;100.00;102962.47;5073891;28;20035;-76
2023/05/26 02:36:48;;;;;;;23.63;6.00;;;;;;;6.65;100.00;102955.59;5073533;28;20033;-76
2023/05/26 02:39:14;;;;;;;21.15;6.00;;;;;;;6.54;100.00;102946.31;5073700;28;20028;-75
2023/05/26 02:41:39;;;;;;;24.40;6.03;;;;;;;6.52;100.00;102949.78;5073457;28;20476;-75
2023/05/26 02:44:05;;;;;;;22.73;5.75;;;;;;;6.53;100.00;102954.03;5073531;28;20078;-75
2023/05/26 02:46:30;;;;;;;24.88;5.35;;;;;;;6.50;100.00;102962.63;5073816;28;20048;-80
2023/05/26 02:48:55;;;;;;;20.60;6.38;;;;;;;6.43;100.00;102950.72;5055018;28;20441;-79
2023/05/26 02:51:21;;;;;;;21.77;5.70;;;;;;;6.29;100.00;102935.50;5073379;28;20470;-74
2023/05/26 02:53:46;;;;;;;18.55;6.18;;;;;;;6.01;100.00;102887.94;5073221;28;20460;-84
2023/05/26 02:56:11;;;;;;;19.90;6.28;;;;;;;6.38;100.00;102949.94;5073564;28;20063;-81
2023/05/26 02:58:37;;;;;;;26.70;6.40;;;;;;;6.37;100.00;102958.50;5073339;28;20498;-75
2023/05/26 03:01:02;;;;;;;20.85;5.90;;;;;;;6.27;100.00;102949.19;5073454;28;20024;-74
2023/05/26 03:03:28;;;;;;;22.83;6.07;;;;;;;6.24;100.00;102954.38;5073209;28;20379;-75
2023/05/26 03:05:53;;;;;;;25.20;5.55;;;;;;;6.14;100.00;102940.78;5054885;28;20082;-76
2023/05/26 03:08:19;;;;;;;26.48;6.95;;;;;;;6.15;100.00;102937.38;5072724;28;20028;-79
2023/05/26 03:10:44;;;;;;;20.65;6.05;;;;;;;6.18;100.00;102944.16;5073038;28;20029;-77
2023/05/26 03:13:10;;;;;;;22.88;5.72;;;;;;;6.01;100.00;102922.13;5073194;28;20041;-82
2023/05/26 03:15:36;;;;;;;25.40;6.43;;;;;;;6.05;100.00;102922.94;5054228;28;20115;-78
2023/05/26 03:18:02;;;;;;;20.67;5.90;;;;;;;6.09;100.00;102946.81;5073306;28;20042;-80
2023/05/26 03:20:28;;;;;;;21.83;5.65;;;;;;;6.14;100.00;102951.06;5073002;28;20050;-81
2023/05/26 03:22:53;;;;;;;19.75;6.00;;;;;;;5.88;100.00;102925.63;5072195;28;20111;-75
2023/05/26 03:25:19;;;;;;;29.08;7.45;;;;;;;6.06;100.00;102949.44;5072976;28;20095;-86
2023/05/26 03:27:45;;;;;;;29.65;6.55;;;;;;;6.08;100.00;102965.66;5072888;28;20062;-80
2023/05/26 03:30:11;;;;;;;24.42;6.28;;;;;;;5.88;100.00;102938.44;5073143;28;20074;-88
2023/05/26 03:32:36;;;;;;;23.02;6.35;;;;;;;6.06;100.00;102969.94;5073101;28;20468;-89
2023/05/26 03:35:02;;;;;;;24.15;5.75;;;;;;;6.05;100.00;102966.53;5073249;28;20032;-89
2023/05/26 03:37:28;;;;;;;24.35;6.35;;;;;;;5.99;100.00;102959.75;5072693;28;20078;-88
2023/05/26 03:39:53;;;;;;;28.05;6.90;;;;;;;5.80;100.00;102932.56;5072617;28;20029;-89
2023/05/26 03:42:18;;;;;;;26.60;6.97;;;;;;;6.06;100.00;102975.09;5072810;28;20020;-88
2023/05/26 03:44:43;;;;;;;20.27;6.50;;;;;;;6.01;100.00;102964.88;5072992;28;20028;-89
2023/05/26 03:47:09;;;;;;;28.55;6.40;;;;;;;5.91;100.00;102951.31;5072800;28;20058;-88
2023/05/26 03:49:34;;;;;;;28.35;7.70;;;;;;;6.06;100.00;102975.94;5072619;28;20059;-89
2023/05/26 03:52:00;;;;;;;27.50;7.22;;;;;;;5.96;100.00;102969.19;5072986;28;20024;-89
2023/05/26 03:54:25;;;;;;;23.42;6.03;;;;;;;5.76;100.00;102925.75;5072650;28;20113;-89
2023/05/26 03:56:51;;;;;;;29.85;7.13;;;;;;;6.04;100.00;102970.81;5073205;28;20464;-90
2023/05/26 03:59:17;;;;;;;24.40;6.45;;;;;;;6.09;100.00;102972.47;5072947;28;20129;-89
2023/05/26 04:01:42;;;;;;;26.00;7.03;;;;;;;6.19;100.00;102979.22;5072703;28;20455;-89
2023/05/26 04:04:08;;;;;;;28.15;6.30;;;;;;;6.19;100.00;102967.22;5072584;28;20033;-91
2023/05/26 04:06:33;;;;;;;26.58;7.03;;;;;;;6.21;100.00;102968.09;5072641;28;20035;-81
2023/05/26 04:09:00;;;;;;;26.23;7.40;;;;;;;6.29;100.00;102974.00;5072324;28;20032;-84
2023/05/26 04:11:26;;;;;;;31.10;7.75;;;;;;;6.17;100.00;102960.44;5072364;28;20716;-84
2023/05/26 04:13:51;;;;;;;26.77;6.57;;;;;;;6.39;100.00;102979.88;5055122;28;20031;-90
2023/05/26 04:16:16;;;;;;;25.27;6.03;;;;;;;6.30;100.00;102965.44;5072723;28;20032;-90
2023/05/26 04:18:42;;;;;;;24.65;6.45;;;;;;;6.37;100.00;102962.78;5054569;28;20029;-89
2023/05/26 04:21:08;;;;;;;24.13;6.40;;;;;;;6.29;100.00;102935.50;5072698;28;20545;-88
2023/05/26 04:23:33;;;;;;;24.83;7.20;;;;;;;6.62;100.00;102987.31;5072369;28;20025;-76
2023/05/26 04:26:00;;;;;;;25.48;6.82;;;;;;;6.57;100.00;102976.22;5072083;28;20020;-89
2023/05/26 04:28:26;;;;;;;24.00;7.38;;;;;;;6.71;100.00;102994.06;5054239;28;20040;-85
2023/05/26 04:30:51;;;;;;;27.42;7.35;;;;;;;6.81;100.00;102993.06;5072244;28;20020;-85
2023/05/26 04:33:17;;;;;;;28.23;6.47;;;;;;;6.90;100.00;102992.97;5072189;28;20108;-89
2023/05/26 04:35:44;;;;;;;26.33;7.22;;;;;;;6.95;100.00;102988.59;5072436;28;20020;-88
2023/05/26 04:38:12;;;;;;;22.80;6.78;;;;;;;6.88;100.00;102975.00;5072186;28;20024;-89
2023/05/26 04:40:37;;;;;;;26.98;6.93;;;;;;;7.11;100.00;102996.94;5072144;28;20063;-84
2023/05/26 04:43:03;;;;;;;26.05;6.43;;;;;;;7.11;100.00;102987.53;5072552;28;20020;-88
2023/05/26 04:45:28;;;;;;;28.38;6.60;;;;;;;7.21;100.00;103005.38;5072268;28;20468;-89
2023/05/26 04:47:56;;;;;;;18.90;6.10;;;;;;;7.07;100.00;102960.16;5072099;28;20033;-88
2023/05/26 04:50:23;;;;;;;30.58;6.70;;;;;;;7.33;100.00;103000.91;5072165;28;20028;-89
2023/05/26 04:52:51;;;;;;;26.98;6.70;;;;;;;7.40;100.00;102993.97;5072146;28;20021;-88
2023/05/26 04:55:16;;;;;;;23.40;5.93;;;;;;;7.45;100.00;102999.88;5071893;28;20086;-88
2023/05/26 04:57:43;;;;;;;26.95;6.53;;;;;;;7.49;100.00;102998.97;5072131;28;20021;-89
2023/05/26 05:00:13;;;;;;;20.90;5.88;;;;;;;7.44;100.00;102977.59;5071964;28;20025;-89
2023/05/26 05:02:38;;;;;;;27.40;6.25;;;;;;;7.71;100.00;103007.19;5072047;28;20032;-88
2023/05/26 05:05:04;;;;;;;28.38;6.68;;;;;;;8.07;99.59;103005.72;5072369;28;20372;-77
2023/05/26 05:07:29;;;;;;;29.35;6.97;;;;;;;8.66;96.75;103011.50;5075921;28;20020;-88
2023/05/26 05:09:55;;;;;;;28.48;6.78;;;;;;;9.30;93.22;103007.53;5075446;28;20020;-82
2023/05/26 05:12:20;;;;;;;28.33;5.60;;;;;;;9.73;89.25;102998.78;5075524;28;20092;-89
2023/05/26 05:14:46;;;;;;;22.00;5.93;;;;;;;10.34;85.96;103010.16;5057307;28;20158;-86
2023/05/26 05:17:11;;;;;;;24.50;6.25;;;;;;;10.79;82.68;103018.34;5075717;28;20032;-89
2023/05/26 05:19:37;;;;;;;21.38;5.72;;;;;;;11.19;80.34;103004.22;5075197;28;20044;-88
2023/05/26 05:22:02;;;;;;;20.77;6.05;;;;;;;11.67;78.80;103000.97;5075481;28;20104;-89
2023/05/26 05:24:27;;;;;;;23.55;5.30;;;;;;;12.41;75.72;103012.28;5075140;28;20436;-89
2023/05/26 05:26:53;;;;;;;23.27;5.88;;;;;;;13.11;72.73;103009.66;5075099;28;20025;-86
2023/05/26 05:29:18;;;;;;;21.50;5.68;;;;;;;13.48;69.56;102999.53;5075103;28;20039;-88
2023/05/26 05:31:43;;;;;;;19.23;5.20;;;;;;;13.75;66.92;102994.09;5075148;28;20050;-86
2023/05/26 05:34:09;;;;;;;18.10;5.35;;;;;;;13.98;67.28;103021.72;5057132;28;20028;-89
2023/05/26 05:36:34;;;;;;;16.98;5.00;;;;;;;14.13;65.33;103021.06;5075107;28;20016;-77
2023/05/26 05:38:59;;;;;;;19.90;5.60;;;;;;;14.27;64.42;103028.28;5056732;28;20055;-89
2023/05/26 05:41:25;;;;;;;21.92;5.38;;;;;;;14.76;63.79;103033.94;5056634;28;20036;-85
2023/05/26 05:43:56;;;;;;;20.13;4.93;;;;;;;15.12;61.71;103029.59;5074800;28;20070;-87
2023/05/26 05:46:21;;;;;;;22.02;5.25;;;;;;;15.40;61.01;103031.75;5075000;28;20029;-87
2023/05/26 05:48:47;;;;;;;21.05;5.72;;;;;;;15.23;59.35;103018.69;5074913;28;20090;-87
2023/05/26 05:51:12;;;;;;;22.58;5.50;;;;;;;15.35;60.59;103023.31;5074841;28;20086;-86
2023/05/26 05:53:38;;;;;;;16.42;5.00;;;;;;;15.93;58.44;103028.31;5075224;28;20027;-87
2023/05/26 05:56:03;;;;;;;21.52;5.82;;;;;;;15.67;59.54;103018.34;5074613;28;20074;-82
2023/05/26 05:58:28;;;;;;;24.42;6.15;;;;;;;15.82;58.19;103034.94;5074472;28;20124;-81
2023/05/26 06:00:54;;;;;;;18.58;5.00;;;;;;;15.68;58.09;103041.69;5074805;28;20031;-86
2023/05/26 06:03:19;;;;;;;24.00;5.75;;;;;;;15.51;59.54;103052.06;5074603;28;20434;-86
2023/05/26 06:05:44;;;;;;;22.63;5.05;;;;;;;15.78;57.66;103050.75;5074674;28;20050;-86
2023/05/26 06:08:10;;;;;;;19.67;5.88;;;;;;;15.27;59.42;103041.06;5074443;28;20086;-88
2023/05/26 06:10:35;;;;;;;22.17;6.68;;;;;;;14.85;60.64;103043.91;5074223;28;20017;-80
2023/05/26 06:13:00;;;;;;;19.67;5.43;;;;;;;14.24;62.16;103047.41;5074461;28;20028;-82
2023/05/26 06:15:26;;;;;;;20.17;5.05;;;;;;;14.26;63.43;103027.44;5072478;28;20032;-77
2023/05/26 06:17:51;;;;;;;16.50;4.28;;;;;;;15.27;60.44;103056.69;5073321;28;20101;-76
2023/05/26 06:20:17;;;;;;;21.70;6.05;;;;;;;15.88;58.24;103034.66;5074310;28;20591;-74
2023/05/26 06:22:43;;;;;;;20.60;5.30;;;;;;;16.23;57.50;103054.56;5056574;28;20047;-76
2023/05/26 06:25:08;;;;;;;17.90;5.55;;;;;;;16.83;55.30;103059.28;5073896;28;20020;-78
2023/05/26 06:27:33;;;;;;;21.98;6.22;;;;;;;17.43;53.99;103046.38;5074145;28;20040;-78
2023/05/26 06:29:59;;;;;;;16.83;4.85;;;;;;;18.03;51.78;103039.38;5073908;28;20044;-75
2023/05/26 06:32:24;;;;;;;17.13;4.97;;;;;;;17.88;49.97;103052.50;5074148;28;20024;-77
2023/05/26 06:34:50;;;;;;;15.93;4.93;;;;;;;17.61;49.77;103049.69;5074001;28;20029;-80
2023/05/26 06:37:15;;;;;;;18.60;5.30;;;;;;;17.24;50.02;103045.72;5073900;28;20047;-82
2023/05/26 06:39:40;;;;;;;23.15;5.00;;;;;;;17.15;50.26;103047.91;5071978;28;20538;-78
2023/05/26 06:42:06;;;;;;;19.40;4.53;;;;;;;17.92;49.67;103051.41;5074499;28;20031;-73
2023/05/26 06:44:33;;;;;;;15.15;4.05;;;;;;;18.76;47.44;103056.78;5074042;28;20112;-76
2023/05/26 06:46:58;;;;;;;19.63;4.90;;;;;;;18.55;45.92;103049.28;5073509;28;20029;-79
2023/05/26 06:49:24;;;;;;;17.85;4.88;;;;;;;18.37;47.04;103044.34;5073503;28;20043;-78
2023/05/26 06:51:49;;;;;;;15.65;4.90;;;;;;;18.11;46.79;103053.78;5073807;28;20020;-79
2023/05/26 06:54:15;;;;;;;16.70;4.82;;;;;;;17.94;47.38;103057.38;5073300;28;20029;-81
2023/05/26 06:56:40;;;;;;;18.15;4.78;;;;;;;18.03;47.12;103020.25;5055003;28;20083;-83
2023/05/26 06:59:06;;;;;;;16.02;4.85;;;;;;;17.94;46.92;103042.53;5074067;28;20063;-71
2023/05/26 07:01:31;;;;;;;19.48;4.85;;;;;;;17.44;47.47;103029.75;5073088;28;20013;-84
2023/05/26 07:03:56;;;;;;;20.92;4.35;;;;;;;17.85;47.82;103052.69;5073323;28;20032;-76
2023/05/26 07:06:22;;;;;;;16.65;4.88;;;;;;;18.10;47.63;103052.09;5073149;28;20107;-78
2023/05/26 07:08:47;;;;;;;20.92;5.78;;;;;;;18.48;46.51;103045.38;5054790;28;20075;-71
2023/05/26 07:11:12;;;;;;;18.10;4.47;;;;;;;18.22;46.80;103064.44;5073112;28;20032;-79
2023/05/26 07:13:38;;;;;;;17.80;4.45;;;;;;;18.28;47.31;103058.81;5054893;28;20047;-82
2023/05/26 07:16:03;;;;;;;13.63;4.80;;;;;;;18.67;45.83;103054.75;5073199;28;20433;-85
2023/05/26 07:18:28;;;;;;;16.33;4.97;;;;;;;18.74;44.59;103062.13;5073194;28;20052;-80
2023/05/26 07:20:54;;;;;;;20.35;4.82;;;;;;;18.83;46.22;103060.72;5072995;28;20052;-89
2023/05/26 07:23:19;;;;;;;17.90;4.88;;;;;;;19.26;44.28;103061.44;5073193;28;20058;-80
2023/05/26 07:25:45;;;;;;;15.65;4.55;;;;;;;19.49;44.47;103052.09;5072951;28;20023;-90
2023/05/26 07:28:10;;;;;;;20.30;5.13;;;;;;;19.58;44.04;103055.94;5072620;28;20029;-91
2023/05/26 07:30:35;;;;;;;18.05;4.53;;;;;;;19.16;45.06;103066.41;5073131;28;20507;-78
2023/05/26 07:33:01;;;;;;;23.38;5.38;;;;;;;18.29;45.82;103048.28;5072832;28;20454;-89
2023/05/26 07:35:26;;;;;;;17.63;5.03;;;;;;;17.19;48.93;103059.00;5072938;28;20030;-85
2023/05/26 07:37:51;;;;;;;20.63;4.72;;;;;;;16.00;51.55;103045.28;5073172;28;20479;-90
2023/05/26 07:40:17;;;;;;;19.50;5.30;;;;;;;15.51;54.58;103059.88;5072886;28;20067;-93
2023/05/26 07:42:42;;;;;;;20.88;5.15;;;;;;;14.99;53.66;103061.47;5072673;28;20032;-74
2023/05/26 07:45:08;;;;;;;19.83;5.55;;;;;;;14.32;56.58;103041.91;5072781;28;20104;-82
2023/05/26 07:47:35;;;;;;;20.45;5.25;;;;;;;14.18;58.17;103057.25;5073056;28;20078;-89
2023/05/26 07:50:01;;;;;;;20.27;5.25;;;;;;;13.96;58.37;103060.75;5073016;28;20103;-91
2023/05/26 07:52:27;;;;;;;16.35;5.10;;;;;;;13.37;59.07;103032.00;5072825;28;20024;-83
2023/05/26 07:54:52;;;;;;;21.98;5.47;;;;;;;13.43;60.40;103057.72;5072779;28;20070;-86
2023/05/26 07:57:18;;;;;;;22.02;5.40;;;;;;;13.32;60.16;103067.69;5072533;28;20028;-81
2023/05/26 07:59:43;;;;;;;19.98;5.70;;;;;;;13.29;61.88;103066.06;5072729;28;20494;-75
2023/05/26 08:02:10;;;;;;;21.40;5.15;;;;;;;13.06;60.64;103061.69;5072639;28;20031;-86
2023/05/26 08:04:35;;;;;;;17.17;5.18;;;;;;;12.98;61.77;103058.56;5072685;28;20032;-87
2023/05/26 08:07:01;;;;;;;19.10;5.18;;;;;;;12.93;60.74;103069.09;5072822;28;20029;-82
2023/05/26 08:09:26;;;;;;;20.42;5.40;;;;;;;12.81;62.40;103061.78;5072829;28;20078;-92
2023/05/26 08:11:52;;;;;;;20.48;5.68;;;;;;;12.84;63.50;103071.19;5073339;28;20077;-92
2023/05/26 08:14:17;;;;;;;23.88;6.00;;;;;;;12.73;62.79;103065.56;5075937;28;20035;-84
2023/05/26 08:16:43;;;;;;;25.35;5.65;;;;;;;12.52;62.76;103033.47;5077021;28;20035;-82
2023/05/26 08:19:08;;;;;;;20.17;5.50;;;;;;;12.77;63.11;103070.56;5076031;28;20029;-87
2023/05/26 08:21:33;;;;;;;21.27;6.30;;;;;;;12.71;61.57;103062.19;5071174;28;20465;-84
2023/05/26 08:24:00;;;;;;;25.33;5.90;;;;;;;12.78;62.93;103064.50;5073196;28;20383;-74
2023/05/26 08:26:25;;;;;;;22.88;5.68;;;;;;;12.50;63.79;103001.59;5053699;28;20472;-81
2023/05/26 08:28:50;;;;;;;20.67;5.60;;;;;;;13.05;63.42;103057.41;5072024;28;20033;-79
2023/05/26 08:31:16;;;;;;;20.15;6.03;;;;;;;13.17;63.69;103061.28;5072657;28;20456;-83
2023/05/26 08:33:41;;;;;;;20.00;4.88;;;;;;;13.10;61.43;103046.88;5072975;28;20024;-85
2023/05/26 08:36:07;;;;;;;21.08;5.22;;;;;;;13.11;60.52;103056.34;5073096;28;20056;-84
2023/05/26 08:38:32;;;;;;;17.17;4.93;;;;;;;13.08;61.71;103057.31;5073488;28;20030;-89
2023/05/26 08:41:00;;;;;;;20.40;5.80;;;;;;;13.05;62.37;103039.25;5074495;28;20036;-87
2023/05/26 08:43:37;;;;;;;18.83;5.45;;;;;;;13.44;63.57;103068.03;5075872;28;20082;-80
2023/05/26 08:46:05;;;;;;;22.77;5.00;;;;;;;13.31;61.39;103046.06;5075771;28;20025;-88
2023/05/26 08:48:31;;;;;;;18.60;5.65;;;;;;;13.44;64.30;103057.66;5058031;28;20040;-87
2023/05/26 08:50:58;;;;;;;18.05;4.47;;;;;;;13.46;62.78;103045.47;5057941;28;20480;-90
2023/05/26 08:53:25;;;;;;;24.67;5.80;;;;;;;13.24;61.70;102991.88;5057578;28;20064;-89
2023/05/26 08:55:50;;;;;;;19.75;5.15;;;;;;;13.53;60.93;103058.22;5075747;28;20059;-87
2023/05/26 08:58:16;;;;;;;18.55;5.22;;;;;;;13.53;63.43;103051.25;5075627;28;20056;-88
2023/05/26 09:00:47;;;;;;;15.52;4.90;;;;;;;13.65;61.47;103049.91;5075529;28;20032;-87
2023/05/26 09:03:12;;;;;;;21.00;5.87;;;;;;;13.66;61.24;103049.84;5075617;28;20447;-90
2023/05/26 09:05:37;;;;;;;21.42;5.00;;;;;;;13.65;59.12;103055.09;5075859;28;20064;-88
2023/05/26 09:08:04;;;;;;;22.35;5.13;;;;;;;13.48;60.73;103022.91;5075498;28;20464;-89
2023/05/26 09:10:31;;;;;;;16.90;4.80;;;;;;;13.77;59.01;103054.63;5075481;28;20021;-88
2023/05/26 09:13:11;;;;;;;18.38;5.00;;;;;;;13.61;58.47;103030.19;5075125;28;20098;-88
2023/05/26 09:15:37;;;;;;;19.45;5.30;;;;;;;13.69;59.42;103056.69;5075565;28;20027;-89
2023/05/26 09:18:07;;;;;;;18.33;5.38;;;;;;;13.75;58.85;103056.44;5075244;28;20024;-86
2023/05/26 09:20:43;;;;;;;21.13;5.50;;;;;;;13.69;59.13;103028.13;5075310;28;20040;-88
2023/05/26 09:23:09;;;;;;;18.70;5.18;;;;;;;13.95;60.57;103043.47;5075574;28;20025;-82
2023/05/26 09:25:36;;;;;;;15.52;4.53;;;;;;;14.08;57.37;103054.19;5075262;28;20555;-91
2023/05/26 09:28:07;;;;;;;17.85;5.53;;;;;;;14.14;57.17;103063.47;5074869;28;20067;-82
2023/05/26 09:30:37;;;;;;;20.23;5.20;;;;;;;14.09;57.08;103058.47;5075122;28;20023;-85
2023/05/26 09:33:09;;;;;;;16.58;4.68;;;;;;;14.02;57.19;103038.84;5075298;28;20075;-81
2023/05/26 09:35:39;;;;;;;16.55;4.93;;;;;;;14.02;55.61;103029.31;5075377;28;20027;-79
2023/05/26 09:38:08;;;;;;;19.42;4.88;;;;;;;14.02;54.48;103055.28;5057076;28;20479;-84
2023/05/26 09:40:34;;;;;;;17.33;4.47;;;;;;;13.95;55.16;103064.25;5075060;28;20436;-87
2023/05/26 09:43:01;;;;;;;21.40;5.22;;;;;;;13.94;56.58;103039.19;5074602;28;20059;-88
2023/05/26 09:45:34;;;;;;;18.15;5.78;;;;;;;14.30;57.53;103049.78;5074702;28;20021;-88
2023/05/26 09:47:59;;;;;;;15.55;4.50;;;;;;;14.40;55.04;103055.41;5073267;28;20025;-77
2023/05/26 09:50:25;;;;;;;18.73;5.22;;;;;;;14.33;56.05;103033.19;5075481;28;20017;-82
2023/05/26 09:52:51;;;;;;;15.50;4.20;;;;;;;14.09;52.10;103009.13;5074557;28;20024;-85
2023/05/26 09:55:17;;;;;;;17.48;4.25;;;;;;;14.30;52.39;103041.13;5074399;28;20387;-81
2023/05/26 09:57:45;;;;;;;15.30;4.53;;;;;;;14.28;51.15;103056.78;5074380;28;20028;-77
2023/05/26 10:00:13;;;;;;;17.83;5.47;;;;;;;14.17;53.16;103029.59;5074697;28;20033;-82
2023/05/26 10:02:40;;;;;;;17.00;4.75;;;;;;;14.32;52.18;103044.50;5074779;28;20047;-83
2023/05/26 10:05:06;;;;;;;17.67;4.82;;;;;;;14.51;54.47;103053.22;5056385;28;20103;-81
2023/05/26 10:07:32;;;;;;;16.70;4.53;;;;;;;14.55;53.38;103044.38;5074329;28;20059;-85
2023/05/26 10:09:59;;;;;;;12.82;4.28;;;;;;;14.57;51.74;103049.50;5074740;28;20083;-88
2023/05/26 10:12:27;;;;;;;17.65;5.25;;;;;;;14.60;53.15;103047.59;5074534;28;20499;-81
2023/05/26 10:14:53;;;;;;;17.15;4.60;;;;;;;14.61;51.80;103038.03;5074456;28;20028;-87
2023/05/26 10:17:20;;;;;;;15.27;4.72;;;;;;;14.70;51.46;103047.19;5074108;28;20017;-85
2023/05/26 10:19:46;;;;;;;15.23;4.38;;;;;;;14.83;50.34;103043.97;5073908;28;20036;-86
2023/05/26 10:22:18;;;;;;;16.30;5.03;;;;;;;14.86;49.47;103043.00;5074048;28;20487;-77
2023/05/26 10:24:51;;;;;;;16.10;4.72;;;;;;;14.72;48.85;103028.00;5074055;28;20078;-83
2023/05/26 10:27:41;;;;;;;15.60;5.38;;;;;;;14.81;49.61;103030.19;5074085;28;20025;-82
2023/05/26 10:30:11;;;;;;;18.58;4.45;;;;;;;14.99;51.40;103036.31;5074008;28;20025;-88
2023/05/26 10:32:57;;;;;;;15.02;5.03;;;;;;;15.16;50.95;103028.56;5074169;28;20391;-93
2023/05/26 10:35:23;;;;;;;15.38;4.75;;;;;;;15.12;49.15;103032.22;5073820;28;20058;-79
2023/05/26 10:38:00;;;;;;;13.77;4.78;;;;;;;15.12;49.17;103032.22;5073751;28;20117;-70
2023/05/26 10:40:32;;;;;;;13.60;3.85;;;;;;;14.95;48.89;103008.75;5073699;28;20043;-77
2023/05/26 10:43:10;;;;;;;13.13;3.90;;;;;;;14.99;47.83;103006.84;5073708;28;20036;-79
2023/05/26 10:45:43;;;;;;;19.85;4.70;;;;;;;15.17;48.59;103019.00;5073794;28;20036;-76
2023/05/26 10:48:10;;;;;;;14.95;4.57;;;;;;;15.24;48.56;103016.91;5073565;28;20110;-71
2023/05/26 10:50:58;;;;;;;19.30;5.22;;;;;;;15.33;47.63;103021.69;5074232;28;20456;-79
2023/05/26 10:53:25;;;;;;;14.55;4.88;;;;;;;15.47;47.68;103017.50;5073350;28;20031;-76
2023/05/26 10:55:58;;;;;;;11.48;3.78;;;;;;;15.57;46.66;103022.28;5073387;28;20472;-74
2023/05/26 10:58:26;;;;;;;15.65;4.75;;;;;;;15.64;45.87;103021.94;5073144;28;20110;-84
2023/05/26 11:00:58;;;;;;;13.25;4.13;;;;;;;15.54;45.03;103004.22;5073333;28;20048;-84
2023/05/26 11:03:41;;;;;;;16.30;4.70;;;;;;;15.68;47.91;103026.06;5072771;28;20052;-82
2023/05/26 11:06:08;;;;;;;16.95;4.80;;;;;;;15.63;46.75;103022.00;5073327;28;20541;-76
2023/05/26 11:08:36;;;;;;;13.70;4.82;;;;;;;15.72;47.24;103008.50;5073302;28;20491;-82
2023/05/26 11:11:12;;;;;;;14.55;4.13;;;;;;;15.93;48.07;103010.06;5073198;28;20455;-83
2023/05/26 11:14:12;;;;;;;14.63;4.38;;;;;;;15.91;46.83;102998.84;5073099;28;20036;-70
2023/05/26 11:16:40;;;;;;;13.13;3.70;;;;;;;15.96;43.39;103006.44;5068518;28;20041;-82
2023/05/26 11:19:07;;;;;;;15.07;3.75;;;;;;;15.90;41.50;103010.19;5072967;28;20048;-81